Time;durP1;ratioP1;P1;durP2;ratioP2;P2;SDS_P1;SDS_P2;PMS_P1;PMS_P2;Temp;Humidity;BMP_temperature;BMP_pressure;BME280_temperature;BME280_humidity;BME280_pressure;Samples;Min_cycle;Max_cycle;Signal;HPM_P1;HPM_P2
2021/03/24 00:01:33;;;;;;;3.50;2.20;;;17.60;29.30;;;;;;8394118;28;20053;-56
2021/03/24 00:05:37;;;;;;;3.70;2.20;;;17.60;29.30;;;;;;8393718;28;20067;-56
2021/03/24 00:09:38;;;;;;;2.55;2.03;;;17.60;29.30;;;;;;8395498;28;20036;-54
2021/03/24 00:13:38;;;;;;;2.83;2.37;;;17.60;29.30;;;;;;8395590;28;20062;-55
2021/03/24 00:17:39;;;;;;;3.10;2.30;;;17.60;29.30;;;;;;8397871;28;20024;-54
2021/03/24 00:21:39;;;;;;;4.30;2.10;;;17.60;29.30;;;;;;8394966;28;20555;-55
2021/03/24 00:25:41;;;;;;;4.17;2.40;;;17.60;29.30;;;;;;8393694;28;20090;-54
2021/03/24 00:29:41;;;;;;;3.20;2.30;;;17.60;29.30;;;;;;8393171;28;20119;-55
2021/03/24 00:33:42;;;;;;;2.77;2.40;;;17.50;29.30;;;;;;8398947;28;20025;-55
2021/03/24 00:37:42;;;;;;;4.10;2.77;;;17.60;29.30;;;;;;8394505;28;20385;-55
2021/03/24 00:41:43;;;;;;;3.77;2.70;;;17.50;29.70;;;;;;8392838;28;20041;-54
2021/03/24 00:45:44;;;;;;;3.55;2.60;;;17.50;29.30;;;;;;8404048;28;20028;-54
2021/03/24 00:49:45;;;;;;;3.43;2.30;;;17.50;29.30;;;;;;8427588;28;20477;-55
2021/03/24 00:53:45;;;;;;;2.93;2.40;;;17.50;29.40;;;;;;8363471;28;20485;-55
2021/03/24 00:57:46;;;;;;;3.17;2.60;;;17.50;29.30;;;;;;8384989;28;20024;-55
2021/03/24 01:01:46;;;;;;;4.90;2.37;;;17.50;29.30;;;;;;8393602;28;20438;-55
2021/03/24 01:05:51;;;;;;;3.87;2.67;;;17.50;29.70;;;;;;8391962;28;20473;-54
2021/03/24 01:09:51;;;;;;;4.03;2.75;;;17.50;29.30;;;;;;8397602;28;20040;-55
2021/03/24 01:13:52;;;;;;;3.40;2.40;;;17.50;29.70;;;;;;8393264;28;20040;-55
2021/03/24 01:17:54;;;;;;;3.30;2.70;;;17.50;29.30;;;;;;8391902;28;20064;-53
2021/03/24 01:21:54;;;;;;;2.92;2.50;;;17.50;29.30;;;;;;8393048;28;20033;-54
2021/03/24 01:25:55;;;;;;;2.87;2.17;;;17.50;29.30;;;;;;8395620;28;20124;-50
2021/03/24 01:29:56;;;;;;;4.77;3.03;;;17.50;29.30;;;;;;8392636;28;20049;-55
2021/03/24 01:33:57;;;;;;;3.77;2.30;;;17.50;29.30;;;;;;8392813;28;20048;-55
2021/03/24 01:37:58;;;;;;;3.45;2.70;;;17.50;29.30;;;;;;8390536;28;20036;-55
2021/03/24 01:41:58;;;;;;;4.13;2.70;;;17.50;29.30;;;;;;8394310;28;20512;-55
2021/03/24 01:46:17;;;;;;;3.40;2.60;;;17.50;29.30;;;;;;8430118;28;20051;-55
2021/03/24 01:50:23;;;;;;;3.40;2.55;;;17.50;29.30;;;;;;8395385;28;20028;-53
2021/03/24 01:54:29;;;;;;;3.60;2.30;;;17.50;29.30;;;;;;8392130;28;20513;-55
2021/03/24 01:58:31;;;;;;;3.35;2.30;;;17.50;29.30;;;;;;8391782;28;20120;-55
2021/03/24 02:02:36;;;;;;;5.72;2.90;;;17.40;29.30;;;;;;8390859;28;20041;-54
2021/03/24 02:06:46;;;;;;;3.40;2.72;;;17.40;29.30;;;;;;8396099;28;20044;-55
2021/03/24 02:10:51;;;;;;;4.55;2.53;;;17.40;29.30;;;;;;8417036;28;20086;-54
2021/03/24 02:15:01;;;;;;;3.70;3.05;;;17.40;29.30;;;;;;8406281;28;20037;-54
2021/03/24 02:19:08;;;;;;;3.28;2.40;;;17.40;29.30;;;;;;8391539;28;20424;-55
2021/03/24 02:23:14;;;;;;;4.32;2.90;;;17.40;29.30;;;;;;8393963;28;20060;-55
2021/03/24 02:27:17;;;;;;;4.65;2.58;;;17.40;29.30;;;;;;8390514;28;20039;-54
2021/03/24 02:31:22;;;;;;;4.68;2.40;;;17.40;29.30;;;;;;8391307;28;20453;-54
2021/03/24 02:35:30;;;;;;;3.78;2.42;;;17.40;29.30;;;;;;8402598;28;20043;-55
2021/03/24 02:39:32;;;;;;;3.42;2.47;;;17.40;29.30;;;;;;8418907;28;20034;-54
2021/03/24 02:43:34;;;;;;;5.43;2.53;;;17.40;29.30;;;;;;8395212;28;20060;-54
2021/03/24 02:47:36;;;;;;;4.65;2.80;;;17.40;29.30;;;;;;8389112;28;20036;-52
2021/03/24 02:51:39;;;;;;;3.53;2.55;;;17.40;29.40;;;;;;8390678;28;20036;-52
2021/03/24 02:55:42;;;;;;;3.08;2.33;;;17.30;29.30;;;;;;8399674;28;20119;-55
2021/03/24 02:59:43;;;;;;;3.63;2.63;;;17.40;29.30;;;;;;8421863;28;20085;-55
2021/03/24 03:03:50;;;;;;;3.93;3.00;;;17.40;29.30;;;;;;8394034;28;20125;-54
2021/03/24 03:08:08;;;;;;;4.82;2.60;;;17.30;29.30;;;;;;8414554;28;20120;-54
2021/03/24 03:12:31;;;;;;;5.43;3.00;;;17.30;29.30;;;;;;8405508;28;20033;-54
2021/03/24 03:16:45;;;;;;;3.72;2.55;;;17.40;29.30;;;;;;8390505;28;20058;-55
2021/03/24 03:20:53;;;;;;;3.65;2.63;;;17.30;29.30;;;;;;8388715;28;20389;-52
2021/03/24 03:25:00;;;;;;;3.78;2.22;;;17.30;29.30;;;;;;8393370;28;20091;-55
2021/03/24 03:29:08;;;;;;;5.15;2.35;;;17.30;29.30;;;;;;8388457;28;20037;-54
2021/03/24 03:33:11;;;;;;;4.20;2.45;;;17.30;29.30;;;;;;8390147;28;20087;-54
2021/03/24 03:37:13;;;;;;;3.08;2.42;;;17.30;29.30;;;;;;8392473;28;20382;-55
2021/03/24 03:41:15;;;;;;;3.30;2.20;;;17.30;29.30;;;;;;8398862;28;20131;-54
2021/03/24 03:45:17;;;;;;;4.57;2.63;;;17.30;29.30;;;;;;8395805;28;20039;-54
2021/03/24 03:49:19;;;;;;;3.65;2.58;;;17.30;29.30;;;;;;8395890;28;20493;-55
2021/03/24 03:53:33;;;;;;;2.75;2.10;;;17.30;29.30;;;;;;8407416;28;20032;-54
2021/03/24 03:57:54;;;;;;;3.65;2.55;;;17.30;29.30;;;;;;8423931;28;20516;-53
2021/03/24 04:02:03;;;;;;;2.90;2.27;;;17.30;29.30;;;;;;8399852;28;20040;-53
2021/03/24 04:06:17;;;;;;;4.80;2.80;;;17.20;29.30;;;;;;8394338;28;20037;-52
2021/03/24 04:10:18;;;;;;;4.18;3.15;;;17.20;29.30;;;;;;8395325;28;20182;-53
2021/03/24 04:14:29;;;;;;;5.10;3.58;;;17.30;29.30;;;;;;8393662;28;20439;-52
2021/03/24 04:18:38;;;;;;;4.50;2.28;;;17.20;29.30;;;;;;8401441;28;20066;-52
2021/03/24 04:22:41;;;;;;;2.45;1.77;;;17.20;29.30;;;;;;8432745;28;20113;-53
2021/03/24 04:26:44;;;;;;;3.22;2.45;;;17.30;29.40;;;;;;8426070;28;20528;-52
2021/03/24 04:30:59;;;;;;;3.92;2.40;;;17.30;29.40;;;;;;8405596;28;20045;-53
2021/03/24 04:34:59;;;;;;;3.90;2.40;;;17.30;29.40;;;;;;8393592;28;20473;-53
2021/03/24 04:39:09;;;;;;;3.77;2.57;;;17.30;29.30;;;;;;8397719;28;20119;-52
2021/03/24 04:43:15;;;;;;;3.30;2.65;;;17.30;29.30;;;;;;8431986;28;20131;-52
2021/03/24 04:47:27;;;;;;;3.92;2.33;;;17.40;29.30;;;;;;8395530;28;20371;-52
2021/03/24 04:51:32;;;;;;;4.53;2.50;;;17.40;29.30;;;;;;8393891;28;20485;-53
2021/03/24 04:55:33;;;;;;;3.40;2.40;;;17.40;29.30;;;;;;8393840;28;20179;-52
2021/03/24 04:59:37;;;;;;;3.28;2.20;;;17.40;29.30;;;;;;8391916;28;20029;-53
2021/03/24 05:03:41;;;;;;;5.25;2.45;;;17.40;29.30;;;;;;8397846;28;20524;-53
2021/03/24 05:07:51;;;;;;;4.63;2.75;;;17.40;29.30;;;;;;8393443;28;20035;-53
2021/03/24 05:12:07;;;;;;;3.65;2.42;;;17.40;29.30;;;;;;8392043;28;20059;-53
2021/03/24 05:16:34;;;;;;;3.75;2.55;;;17.40;29.30;;;;;;8393702;28;20032;-52
2021/03/24 05:20:57;;;;;;;3.85;2.95;;;17.40;29.30;;;;;;8391528;28;20106;-53
2021/03/24 05:25:25;;;;;;;3.95;2.55;;;17.40;29.30;;;;;;8397421;28;20086;-51
2021/03/24 05:29:29;;;;;;;3.53;2.25;;;17.30;29.30;;;;;;8362344;28;20482;-53
2021/03/24 05:33:37;;;;;;;3.88;2.88;;;17.30;29.30;;;;;;8384394;28;20048;-53
2021/03/24 05:37:37;;;;;;;4.70;3.17;;;17.30;29.30;;;;;;8392619;28;20060;-53
2021/03/24 05:42:19;;;;;;;3.20;2.50;;;17.30;29.30;;;;;;8390725;28;20048;-53
2021/03/24 05:46:49;;;;;;;3.78;2.50;;;17.30;29.30;;;;;;8391723;28;20030;-53
2021/03/24 05:50:53;;;;;;;3.50;2.63;;;17.30;29.40;;;;;;8394880;28;20036;-52
2021/03/24 05:55:09;;;;;;;4.35;2.40;;;17.20;29.30;;;;;;8392276;28;20037;-53
2021/03/24 05:59:30;;;;;;;3.80;2.40;;;17.20;29.40;;;;;;8390755;28;20103;-52
2021/03/24 06:03:55;;;;;;;4.10;2.88;;;17.20;29.40;;;;;;8391625;28;20536;-53
2021/03/24 06:08:17;;;;;;;3.47;2.45;;;17.20;29.40;;;;;;8397808;28;20032;-49
2021/03/24 06:12:18;;;;;;;;;;;17.20;29.40;;;;;;8423734;28;20043;-53
2021/03/24 06:16:29;;;;;;;3.55;2.83;;;17.10;29.40;;;;;;8396017;28;19938;-51
2021/03/24 06:20:48;;;;;;;3.37;2.53;;;17.10;29.40;;;;;;8389728;28;20079;-53
2021/03/24 06:25:07;;;;;;;4.22;2.47;;;17.10;29.40;;;;;;8391119;28;20064;-52
2021/03/24 06:29:43;;;;;;;3.40;2.67;;;17.10;29.40;;;;;;8389931;28;20482;-53
2021/03/24 06:34:16;;;;;;;3.50;2.40;;;17.20;29.40;;;;;;8397074;28;20024;-54
2021/03/24 06:38:45;;;;;;;5.78;3.05;;;17.30;29.20;;;;;;8421393;28;20119;-54
2021/03/24 06:43:08;;;;;;;3.90;2.60;;;17.50;29.00;;;;;;8392113;28;20044;-52
2021/03/24 06:47:17;;;;;;;3.08;2.40;;;17.70;28.70;;;;;;8389170;28;20047;-53
2021/03/24 06:51:36;;;;;;;4.63;2.67;;;17.80;28.60;;;;;;8390800;28;20512;-53
2021/03/24 06:56:09;;;;;;;4.40;3.00;;;17.70;28.60;;;;;;8390954;28;20056;-54
2021/03/24 07:00:28;;;;;;;2.63;2.25;;;17.60;28.70;;;;;;8389262;28;20087;-53
2021/03/24 07:04:50;;;;;;;3.00;2.30;;;17.50;28.80;;;;;;8390368;28;20067;-54
2021/03/24 07:09:09;;;;;;;3.70;2.60;;;17.40;28.90;;;;;;8393269;28;20119;-53
2021/03/24 07:13:57;;;;;;;4.00;2.78;;;17.40;29.00;;;;;;8394655;28;20409;-53
2021/03/24 07:18:23;;;;;;;3.33;2.45;;;17.30;29.00;;;;;;8395106;28;20052;-54
2021/03/24 07:22:40;;;;;;;3.83;2.60;;;17.30;29.10;;;;;;8418340;28;20382;-54
2021/03/24 07:27:35;;;;;;;3.72;2.50;;;17.30;29.20;;;;;;8413563;28;20086;-53
2021/03/24 07:31:39;;;;;;;4.25;2.30;;;17.30;29.10;;;;;;8369655;28;20394;-53
2021/03/24 07:35:45;;;;;;;3.83;2.60;;;17.40;29.10;;;;;;8394440;28;20036;-54
2021/03/24 07:40:03;;;;;;;3.22;2.53;;;17.50;29.10;;;;;;8400570;28;20032;-53
2021/03/24 07:44:30;;;;;;;3.80;2.65;;;17.50;29.10;;;;;;8394364;28;20048;-53
2021/03/24 07:48:49;;;;;;;2.88;2.28;;;17.60;29.00;;;;;;8392894;28;20150;-53
2021/03/24 07:53:01;;;;;;;4.03;2.28;;;17.60;29.00;;;;;;8396213;28;20491;-53
2021/03/24 07:57:35;;;;;;;3.78;2.75;;;17.60;29.00;;;;;;8394387;28;20389;-53
2021/03/24 08:02:00;;;;;;;4.38;2.85;;;17.50;29.10;;;;;;8395614;28;20433;-52
2021/03/24 08:06:12;;;;;;;3.38;2.47;;;17.50;29.30;;;;;;8398450;28;20039;-53
2021/03/24 08:10:22;;;;;;;;;;;17.50;29.20;;;;;;8395543;28;20047;-53
2021/03/24 08:14:39;;;;;;;4.80;2.63;;;17.50;29.20;;;;;;8393698;28;19924;-54
2021/03/24 08:19:18;;;;;;;3.10;2.10;;;17.50;29.20;;;;;;8395242;28;20045;-53
2021/03/24 08:23:40;;;;;;;3.75;2.22;;;17.50;29.20;;;;;;8364899;28;20048;-55
2021/03/24 08:27:51;;;;;;;6.38;2.67;;;17.60;29.20;;;;;;8394657;28;20029;-54
2021/03/24 08:32:00;;;;;;;3.55;2.35;;;17.60;29.20;;;;;;8399241;28;20040;-54
2021/03/24 08:36:25;;;;;;;2.50;2.13;;;17.70;29.20;;;;;;8393365;28;20033;-53
2021/03/24 08:40:45;;;;;;;2.75;2.20;;;17.70;29.20;;;;;;8394452;28;20116;-54
2021/03/24 08:45:15;;;;;;;3.35;2.58;;;17.80;29.30;;;;;;8392673;28;20073;-52
2021/03/24 08:49:22;;;;;;;3.88;2.38;;;17.80;29.30;;;;;;8392661;28;20158;-54
2021/03/24 08:53:30;;;;;;;2.80;2.17;;;17.80;29.30;;;;;;8393165;28;20028;-54
2021/03/24 08:57:31;;;;;;;2.55;2.10;;;17.90;29.30;;;;;;8398408;28;20029;-53
2021/03/24 09:01:56;;;;;;;3.47;2.27;;;17.90;29.30;;;;;;8393439;28;20055;-53
2021/03/24 09:06:08;;;;;;;3.03;2.35;;;18.00;29.30;;;;;;8410468;28;20101;-53
2021/03/24 09:10:21;;;;;;;5.38;2.42;;;18.00;29.30;;;;;;8416621;28;20052;-54
2021/03/24 09:14:31;;;;;;;4.18;2.40;;;18.00;29.30;;;;;;8392650;28;20037;-54
2021/03/24 09:19:01;;;;;;;2.75;1.90;;;18.10;29.30;;;;;;8397435;28;20037;-53
2021/03/24 09:23:23;;;;;;;4.00;2.35;;;18.10;29.30;;;;;;8391100;28;20497;-53
2021/03/24 09:27:36;;;;;;;3.85;2.40;;;18.20;29.30;;;;;;8392929;28;20043;-54
2021/03/24 09:32:25;;;;;;;6.78;2.33;;;18.20;29.20;;;;;;8393467;28;20029;-54
2021/03/24 09:36:37;;;;;;;3.75;2.45;;;18.30;29.30;;;;;;8337118;28;20146;-54
2021/03/24 09:40:48;;;;;;;3.40;2.45;;;18.40;29.30;;;;;;8392259;28;20042;-53
2021/03/24 09:44:54;;;;;;;3.70;2.25;;;18.40;29.20;;;;;;8395034;28;20025;-54
2021/03/24 09:49:00;;;;;;;4.35;2.63;;;18.40;29.30;;;;;;8392365;28;20509;-54
2021/03/24 09:53:03;;;;;;;3.15;2.20;;;18.50;29.30;;;;;;8390194;28;20397;-53
2021/03/24 09:57:08;;;;;;;3.30;2.08;;;18.50;29.20;;;;;;8401905;28;20028;-54
2021/03/24 10:01:30;;;;;;;3.80;2.20;;;18.50;29.20;;;;;;8423531;28;20400;-54
2021/03/24 10:05:46;;;;;;;2.67;2.40;;;18.60;29.20;;;;;;8394377;28;20436;-53
2021/03/24 10:10:05;;;;;;;3.72;2.45;;;18.60;29.20;;;;;;8391546;28;20041;-55
2021/03/24 10:14:12;;;;;;;3.25;2.38;;;18.60;29.20;;;;;;8389712;28;20097;-56
2021/03/24 10:18:33;;;;;;;4.70;2.42;;;18.70;29.20;;;;;;8391627;28;20033;-56
2021/03/24 10:22:59;;;;;;;2.63;2.03;;;18.70;29.20;;;;;;8391964;28;20093;-56
2021/03/24 10:27:06;;;;;;;3.05;1.92;;;18.80;29.20;;;;;;8391822;28;20050;-56
2021/03/24 10:31:25;;;;;;;4.10;2.72;;;18.80;29.20;;;;;;8362590;28;20122;-55
2021/03/24 10:35:35;;;;;;;2.95;2.40;;;18.90;29.20;;;;;;8383543;28;20029;-56
2021/03/24 10:39:53;;;;;;;2.63;2.00;;;18.90;29.20;;;;;;8391294;28;20028;-56
2021/03/24 10:44:08;;;;;;;3.17;2.22;;;18.90;29.10;;;;;;8390821;28;20102;-56
2021/03/24 10:48:33;;;;;;;3.63;2.33;;;19.00;29.20;;;;;;8389563;28;20036;-56
2021/03/24 10:53:18;;;;;;;3.28;2.20;;;19.00;29.20;;;;;;8395313;28;20098;-55
2021/03/24 10:57:48;;;;;;;3.28;2.42;;;19.00;29.20;;;;;;8360554;28;20095;-55
2021/03/24 11:01:58;;;;;;;3.25;1.80;;;19.10;29.20;;;;;;8387872;28;20075;-55
2021/03/24 11:06:11;;;;;;;3.08;2.22;;;19.10;29.10;;;;;;8389354;28;20033;-54
2021/03/24 11:10:35;;;;;;;4.03;2.33;;;19.10;29.10;;;;;;8390555;28;20041;-54
2021/03/24 11:14:39;;;;;;;2.80;2.13;;;19.10;29.10;;;;;;8395113;28;20047;-53
2021/03/24 11:18:43;;;;;;;2.70;2.03;;;19.20;29.10;;;;;;8428215;28;20132;-54
2021/03/24 11:22:56;;;;;;;2.88;1.90;;;19.20;29.10;;;;;;8392362;28;20049;-54
2021/03/24 11:27:08;;;;;;;2.80;2.10;;;19.20;29.10;;;;;;8388976;28;20064;-55
2021/03/24 11:31:11;;;;;;;3.13;2.13;;;19.30;29.10;;;;;;8404551;28;20020;-55
2021/03/24 11:35:27;;;;;;;2.38;2.00;;;19.30;29.10;;;;;;8416801;28;20028;-55
2021/03/24 11:39:33;;;;;;;2.60;1.90;;;19.30;29.10;;;;;;8394764;28;20386;-54
2021/03/24 11:43:38;;;;;;;3.33;2.35;;;19.40;29.10;;;;;;8389951;28;20094;-54
2021/03/24 11:47:59;;;;;;;3.65;2.38;;;19.40;29.10;;;;;;8388172;28;20052;-54
2021/03/24 11:52:10;;;;;;;3.65;2.00;;;19.40;29.10;;;;;;8390098;28;20045;-55
2021/03/24 11:56:25;;;;;;;2.28;1.92;;;19.50;29.10;;;;;;8394226;28;20524;-56
2021/03/24 12:00:26;;;;;;;3.33;1.92;;;19.50;29.00;;;;;;8433406;28;20036;-54
2021/03/24 12:04:35;;;;;;;3.20;1.80;;;19.50;29.00;;;;;;8396485;28;20071;-55
2021/03/24 12:09:00;;;;;;;3.22;2.03;;;19.50;29.00;;;;;;8393644;28;20032;-54
2021/03/24 12:13:27;;;;;;;3.20;1.92;;;19.60;29.10;;;;;;8412016;28;20081;-56
2021/03/24 12:17:35;;;;;;;2.67;1.70;;;19.60;29.00;;;;;;8415785;28;20032;-56
2021/03/24 12:21:38;;;;;;;1.77;1.60;;;19.60;29.00;;;;;;8395147;28;20044;-56
2021/03/24 12:25:48;;;;;;;2.22;1.73;;;19.60;29.00;;;;;;8399479;28;20494;-56
2021/03/24 12:30:05;;;;;;;2.40;1.80;;;19.70;29.00;;;;;;8393115;28;20090;-56
2021/03/24 12:34:06;;;;;;;2.97;2.00;;;19.70;29.00;;;;;;8394648;28;20505;-57
2021/03/24 12:38:10;;;;;;;2.67;1.70;;;19.70;29.00;;;;;;8392806;28;20068;-56
2021/03/24 12:42:33;;;;;;;2.33;1.80;;;19.70;29.00;;;;;;8397768;28;20520;-56
2021/03/24 12:46:33;;;;;;;4.05;2.25;;;19.80;29.00;;;;;;8365465;28;20090;-56
2021/03/24 12:50:39;;;;;;;1.70;1.60;;;19.80;29.00;;;;;;8385641;28;20033;-56
2021/03/24 12:54:39;;;;;;;2.85;2.05;;;19.80;29.00;;;;;;8394114;28;20056;-56
2021/03/24 12:58:46;;;;;;;1.70;1.50;;;19.80;29.00;;;;;;8394739;28;20465;-56
2021/03/24 13:03:00;;;;;;;3.17;1.83;;;19.90;29.00;;;;;;8396403;28;20494;-56
2021/03/24 13:07:29;;;;;;;2.17;1.73;;;19.90;29.00;;;;;;8395696;28;20040;-56
2021/03/24 13:12:05;;;;;;;1.80;1.58;;;19.90;28.90;;;;;;8391305;28;20033;-56
2021/03/24 13:16:16;;;;;;;2.67;1.70;;;19.90;28.90;;;;;;8385688;28;20460;-56
2021/03/24 13:20:42;;;;;;;2.27;1.40;;;20.00;28.90;;;;;;8391605;28;20503;-56
2021/03/24 13:25:07;;;;;;;2.28;1.60;;;20.00;28.90;;;;;;8393263;28;20035;-55
2021/03/24 13:29:19;;;;;;;2.05;1.75;;;20.00;28.90;;;;;;8391390;28;20507;-55
2021/03/24 13:33:39;;;;;;;2.80;1.50;;;20.00;28.80;;;;;;8397404;28;20036;-55
2021/03/24 13:37:41;;;;;;;2.47;1.80;;;20.00;28.90;;;;;;8393051;28;20040;-56
2021/03/24 13:41:43;;;;;;;;;;;20.00;28.80;;;;;;8391307;28;20440;-56
2021/03/24 13:45:48;;;;;;;2.15;1.42;;;20.10;28.90;;;;;;8392533;28;19915;-56
2021/03/24 13:50:06;;;;;;;1.83;1.38;;;20.10;28.90;;;;;;8394303;28;20097;-56
2021/03/24 13:54:31;;;;;;;1.60;1.50;;;20.10;28.80;;;;;;8395276;28;20161;-56
2021/03/24 13:59:02;;;;;;;1.88;1.60;;;20.10;28.80;;;;;;8391607;28;20040;-56
2021/03/24 14:03:32;;;;;;;1.97;1.40;;;20.10;28.80;;;;;;8390492;28;20040;-56
2021/03/24 14:07:52;;;;;;;1.35;1.25;;;20.20;28.90;;;;;;8392271;28;20275;-56
2021/03/24 14:12:14;;;;;;;4.78;1.58;;;20.10;28.80;;;;;;8389609;28;20037;-56
2021/03/24 14:16:27;;;;;;;2.33;1.60;;;20.20;28.80;;;;;;8391952;28;20033;-57
2021/03/24 14:20:32;;;;;;;2.45;1.60;;;20.20;28.80;;;;;;8393589;28;20033;-56
2021/03/24 14:24:41;;;;;;;2.28;1.50;;;20.20;28.70;;;;;;8391329;28;20466;-57
2021/03/24 14:28:46;;;;;;;2.15;1.50;;;20.20;28.70;;;;;;8391385;28;20036;-56
2021/03/24 14:32:55;;;;;;;2.05;1.55;;;20.20;28.70;;;;;;8389985;28;20024;-56
2021/03/24 14:36:56;;;;;;;2.40;1.60;;;20.20;28.70;;;;;;8391024;28;20398;-57
2021/03/24 14:41:18;;;;;;;2.38;1.35;;;20.20;28.70;;;;;;8393629;28;20055;-54
2021/03/24 14:46:06;;;;;;;1.83;1.50;;;20.30;28.80;;;;;;8384357;28;20032;-57
2021/03/24 14:50:45;;;;;;;1.55;1.25;;;20.30;28.70;;;;;;8351872;28;20044;-57
2021/03/24 14:54:51;;;;;;;1.55;1.45;;;20.30;28.70;;;;;;8390888;28;20102;-56
2021/03/24 14:59:11;;;;;;;1.60;1.40;;;20.30;28.70;;;;;;8390844;28;20035;-56
2021/03/24 15:03:17;;;;;;;1.88;1.42;;;20.30;28.70;;;;;;8387388;28;20047;-55
2021/03/24 15:07:37;;;;;;;1.70;1.45;;;20.30;28.70;;;;;;8394590;28;20033;-55
2021/03/24 15:11:38;;;;;;;2.40;1.60;;;20.40;28.70;;;;;;8389438;28;20040;-55
2021/03/24 15:15:47;;;;;;;1.30;1.20;;;20.40;28.70;;;;;;8390709;28;20047;-53
2021/03/24 15:20:15;;;;;;;1.92;1.45;;;20.40;28.70;;;;;;8390317;28;20516;-55
2021/03/24 15:24:34;;;;;;;1.33;1.20;;;20.40;28.70;;;;;;8363378;28;20041;-50
2021/03/24 15:28:39;;;;;;;1.33;1.20;;;20.40;28.70;;;;;;8394615;28;20578;-50
2021/03/24 15:32:49;;;;;;;1.70;1.50;;;20.40;28.70;;;;;;8392544;28;20043;-54
2021/03/24 15:37:27;;;;;;;1.40;1.30;;;20.40;28.70;;;;;;8396214;28;20524;-54
2021/03/24 15:41:49;;;;;;;1.45;1.30;;;20.40;28.60;;;;;;8394748;28;20048;-52
2021/03/24 15:45:52;;;;;;;2.45;1.33;;;20.50;28.70;;;;;;8395856;28;20144;-54
2021/03/24 15:50:33;;;;;;;2.25;1.48;;;20.40;28.60;;;;;;8395851;28;20029;-51
2021/03/24 15:54:38;;;;;;;1.92;1.27;;;20.50;28.70;;;;;;8399204;28;20029;-54
2021/03/24 15:58:59;;;;;;;2.15;1.40;;;20.50;28.70;;;;;;8397963;28;20040;-55
2021/03/24 16:03:26;;;;;;;1.60;1.30;;;20.50;28.60;;;;;;8393719;28;20058;-51
2021/03/24 16:07:41;;;;;;;1.73;1.48;;;20.50;28.60;;;;;;8395220;28;20071;-55
2021/03/24 16:11:50;;;;;;;1.60;1.45;;;20.50;28.60;;;;;;8393969;28;20046;-55
2021/03/24 16:16:04;;;;;;;2.25;1.55;;;20.60;28.60;;;;;;8395082;28;20091;-54
2021/03/24 16:20:37;;;;;;;1.35;1.25;;;20.60;28.60;;;;;;8397941;28;20036;-55
2021/03/24 16:24:45;;;;;;;2.20;1.52;;;20.50;28.60;;;;;;8387917;28;20407;-54
2021/03/24 16:28:51;;;;;;;2.42;1.98;;;20.50;28.60;;;;;;8394726;28;20032;-54
2021/03/24 16:33:28;;;;;;;1.83;1.50;;;20.60;28.60;;;;;;8392263;28;20111;-56
2021/03/24 16:37:41;;;;;;;2.83;1.73;;;20.60;28.60;;;;;;8394273;28;20037;-56
2021/03/24 16:41:54;;;;;;;2.95;1.63;;;20.60;28.60;;;;;;8392524;28;20123;-55
2021/03/24 16:46:28;;;;;;;2.92;1.70;;;20.60;28.60;;;;;;8397402;28;20100;-55
2021/03/24 16:50:31;;;;;;;2.47;1.80;;;20.60;28.60;;;;;;8392046;28;20036;-54
2021/03/24 16:54:47;;;;;;;2.08;1.83;;;20.60;28.60;;;;;;8393081;28;20028;-57
2021/03/24 16:59:02;;;;;;;2.85;1.73;;;20.60;28.60;;;;;;8385133;28;20032;-55
2021/03/24 17:03:07;;;;;;;3.35;1.88;;;20.50;27.00;;;;;;8362755;28;20098;-54
2021/03/24 17:07:30;;;;;;;7.38;2.50;;;20.50;28.30;;;;;;8389957;28;20040;-56
2021/03/24 17:11:41;;;;;;;36.00;4.85;;;20.50;28.90;;;;;;8383883;28;20516;-56
2021/03/24 17:15:57;;;;;;;9.52;2.65;;;20.60;29.90;;;;;;8383624;28;20044;-54
2021/03/24 17:20:28;;;;;;;18.15;3.35;;;20.70;29.40;;;;;;8384684;28;20417;-56
2021/03/24 17:24:37;;;;;;;10.57;2.83;;;20.70;29.60;;;;;;8363732;28;20489;-55
2021/03/24 17:28:42;;;;;;;12.45;3.10;;;20.80;29.70;;;;;;8386837;28;20028;-54
2021/03/24 17:32:47;;;;;;;12.73;2.35;;;20.80;29.70;;;;;;8389177;28;20033;-55
2021/03/24 17:37:06;;;;;;;9.63;2.55;;;20.80;29.60;;;;;;8386673;28;20041;-56
2021/03/24 17:41:08;;;;;;;8.57;2.60;;;20.90;29.70;;;;;;8384798;28;20056;-57
2021/03/24 17:45:26;;;;;;;10.73;2.53;;;21.00;29.70;;;;;;8386386;28;20398;-56
2021/03/24 17:49:43;;;;;;;12.30;3.25;;;21.00;29.60;;;;;;8386200;28;20553;-57
2021/03/24 17:54:14;;;;;;;7.63;2.60;;;21.00;29.70;;;;;;8388646;27;20162;-56
2021/03/24 17:58:44;;;;;;;7.17;2.93;;;21.10;29.70;;;;;;8387605;28;20103;-54
2021/03/24 18:03:22;;;;;;;10.77;2.45;;;21.10;29.60;;;;;;8411154;27;20293;-55
2021/03/24 18:07:41;;;;;;;13.60;4.22;;;21.10;29.50;;;;;;8401296;28;20139;-57
2021/03/24 18:11:44;;;;;;;7.03;2.92;;;21.20;29.40;;;;;;8377636;28;20051;-57
2021/03/24 18:15:47;;;;;;;5.95;2.65;;;21.20;29.40;;;;;;8385138;28;20035;-57
2021/03/24 18:19:53;;;;;;;8.18;2.83;;;21.20;29.30;;;;;;8380016;28;20041;-57
2021/03/24 18:23:58;;;;;;;8.73;2.40;;;21.20;29.30;;;;;;8383805;28;20051;-57
2021/03/24 18:28:07;;;;;;;5.38;2.08;;;21.30;29.30;;;;;;8379502;28;20498;-57
2021/03/24 18:32:09;;;;;;;6.18;2.50;;;21.30;29.30;;;;;;8362728;28;20106;-57
2021/03/24 18:36:14;;;;;;;5.63;2.47;;;21.30;29.30;;;;;;8385060;28;20037;-57
2021/03/24 18:40:21;;;;;;;6.05;2.67;;;21.40;29.30;;;;;;8388908;28;20036;-57
2021/03/24 18:44:33;;;;;;;8.63;2.65;;;21.40;29.30;;;;;;8383046;28;20036;-56
2021/03/24 18:48:41;;;;;;;9.63;2.70;;;21.40;29.30;;;;;;8384999;28;20043;-58
2021/03/24 18:52:45;;;;;;;6.53;2.38;;;21.50;29.30;;;;;;8384717;28;20147;-57
2021/03/24 18:56:52;;;;;;;6.18;2.47;;;21.50;29.30;;;;;;8382652;28;20044;-56
2021/03/24 19:00:57;;;;;;;9.50;4.05;;;21.50;29.30;;;;;;8422517;28;20056;-57
2021/03/24 19:05:10;;;;;;;5.22;2.38;;;21.50;29.30;;;;;;8389727;28;20392;-57
2021/03/24 19:09:32;;;;;;;7.65;2.63;;;21.60;29.30;;;;;;8390977;28;20493;-58
2021/03/24 19:13:34;;;;;;;6.28;2.63;;;21.50;29.30;;;;;;8397258;28;20040;-58
2021/03/24 19:17:38;;;;;;;6.57;2.45;;;21.50;29.70;;;;;;8395939;28;20042;-54
2021/03/24 19:21:45;;;;;;;8.15;2.53;;;21.50;29.30;;;;;;8401321;28;20094;-56
2021/03/24 19:25:48;;;;;;;12.23;2.78;;;21.40;29.30;;;;;;8396746;28;20039;-57
2021/03/24 19:30:22;;;;;;;6.65;2.40;;;21.40;29.20;;;;;;8395085;28;20029;-57
2021/03/24 19:34:28;;;;;;;5.18;2.65;;;21.50;29.70;;;;;;8396830;28;20512;-57
2021/03/24 19:38:34;;;;;;;4.68;2.72;;;21.40;29.20;;;;;;8394718;28;20124;-57
2021/03/24 19:42:35;;;;;;;3.90;2.35;;;21.40;29.10;;;;;;8400637;28;20094;-57
2021/03/24 19:46:45;;;;;;;4.37;2.13;;;21.40;29.20;;;;;;8396155;28;20040;-56
2021/03/24 19:50:47;;;;;;;5.85;2.47;;;21.40;29.10;;;;;;8394726;28;20033;-57
2021/03/24 19:54:47;;;;;;;6.47;2.20;;;21.40;29.10;;;;;;8395708;28;20025;-56
2021/03/24 19:58:54;;;;;;;7.10;2.53;;;21.40;29.10;;;;;;8400217;28;20035;-56
2021/03/24 20:03:21;;;;;;;3.03;2.13;;;21.40;29.10;;;;;;8393757;28;20489;-57
2021/03/24 20:07:56;;;;;;;5.15;2.22;;;21.40;29.10;;;;;;8396106;28;20561;-58
2021/03/24 20:12:01;;;;;;;4.97;2.47;;;21.40;29.10;;;;;;8383396;28;20044;-57
2021/03/24 20:16:06;;;;;;;6.53;2.17;;;21.40;29.00;;;;;;8395505;28;20389;-56
2021/03/24 20:20:33;;;;;;;4.78;2.25;;;21.40;29.00;;;;;;8393143;28;20039;-57
2021/03/24 20:24:34;;;;;;;4.72;2.10;;;21.40;29.00;;;;;;8399369;28;20451;-57
2021/03/24 20:28:35;;;;;;;5.33;2.40;;;21.40;29.00;;;;;;8394843;28;20047;-58
2021/03/24 20:32:44;;;;;;;4.57;2.20;;;21.40;29.00;;;;;;8393227;28;20401;-58
2021/03/24 20:37:14;;;;;;;3.20;2.35;;;21.40;29.00;;;;;;8394805;28;20071;-57
2021/03/24 20:41:35;;;;;;;7.93;2.40;;;21.40;28.90;;;;;;8391567;28;20036;-57
2021/03/24 20:45:43;;;;;;;3.47;2.10;;;21.40;28.90;;;;;;8398729;28;20036;-56
2021/03/24 20:49:44;;;;;;;4.78;2.50;;;21.40;28.90;;;;;;8394381;28;20042;-57
2021/03/24 20:53:45;;;;;;;3.83;2.30;;;21.40;28.90;;;;;;8392322;28;20033;-56
2021/03/24 20:57:46;;;;;;;4.22;2.38;;;21.40;28.90;;;;;;8406183;28;20040;-56
2021/03/24 21:01:48;;;;;;;3.42;2.30;;;21.40;28.90;;;;;;8424540;28;20471;-56
2021/03/24 21:05:53;;;;;;;4.93;2.28;;;21.40;28.80;;;;;;8396792;28;20024;-56
2021/03/24 21:09:54;;;;;;;3.85;2.50;;;21.40;28.80;;;;;;8393519;28;20119;-56
2021/03/24 21:13:55;;;;;;;5.43;2.50;;;21.40;28.80;;;;;;8394337;28;20063;-56
2021/03/24 21:17:56;;;;;;;6.20;2.27;;;21.40;28.80;;;;;;8392107;28;20029;-57
2021/03/24 21:21:56;;;;;;;2.75;1.98;;;21.40;28.80;;;;;;8397568;28;20040;-57
2021/03/24 21:25:57;;;;;;;4.13;2.17;;;21.40;28.80;;;;;;8391325;28;20044;-55
2021/03/24 21:29:58;;;;;;;6.32;3.00;;;21.40;28.80;;;;;;8393268;28;20033;-57
2021/03/24 21:33:58;;;;;;;2.53;2.00;;;21.40;29.20;;;;;;8392648;28;20131;-57
2021/03/24 21:37:59;;;;;;;3.23;2.00;;;21.30;28.80;;;;;;8391944;28;20101;-56
2021/03/24 21:42:00;;;;;;;5.18;2.03;;;21.30;28.80;;;;;;8396690;28;20067;-57
2021/03/24 21:46:01;;;;;;;4.07;2.30;;;21.30;28.70;;;;;;8392574;28;20039;-57
2021/03/24 21:50:05;;;;;;;3.20;2.67;;;21.30;28.70;;;;;;8390567;28;20044;-57
2021/03/24 21:54:06;;;;;;;2.95;2.05;;;21.20;28.60;;;;;;8393038;28;20040;-57